sensor_id;sensor_type;location;lat;lon;timestamp;temperature;humidity
50067;DHT22;35952;52.524;13.340;2023-04-01T00:00:06;10.40;99.90
50067;DHT22;35952;52.524;13.340;2023-04-01T00:02:31;10.40;99.90
50067;DHT22;35952;52.524;13.340;2023-04-01T00:04:57;10.40;99.90
50067;DHT22;35952;52.524;13.340;2023-04-01T00:07:23;10.40;99.90
50067;DHT22;35952;52.524;13.340;2023-04-01T00:09:48;10.40;99.90
50067;DHT22;35952;52.524;13.340;2023-04-01T00:12:14;10.40;99.90
50067;DHT22;35952;52.524;13.340;2023-04-01T00:14:39;10.30;99.90
50067;DHT22;35952;52.524;13.340;2023-04-01T00:17:05;10.20;99.90
50067;DHT22;35952;52.524;13.340;2023-04-01T00:19:31;10.30;99.90
50067;DHT22;35952;52.524;13.340;2023-04-01T00:21:58;10.30;99.90
50067;DHT22;35952;52.524;13.340;2023-04-01T00:24:24;10.30;99.90
50067;DHT22;35952;52.524;13.340;2023-04-01T00:26:50;10.30;99.90
50067;DHT22;35952;52.524;13.340;2023-04-01T00:29:15;10.30;99.90
50067;DHT22;35952;52.524;13.340;2023-04-01T00:31:41;10.40;99.90
50067;DHT22;35952;52.524;13.340;2023-04-01T00:34:06;10.40;99.90
50067;DHT22;35952;52.524;13.340;2023-04-01T00:36:32;10.20;99.90
50067;DHT22;35952;52.524;13.340;2023-04-01T00:38:58;10.20;99.90
50067;DHT22;35952;52.524;13.340;2023-04-01T00:41:26;10.20;99.90
50067;DHT22;35952;52.524;13.340;2023-04-01T00:44:18;10.30;99.90
50067;DHT22;35952;52.524;13.340;2023-04-01T00:46:43;10.40;99.90
50067;DHT22;35952;52.524;13.340;2023-04-01T00:49:09;10.40;99.90
50067;DHT22;35952;52.524;13.340;2023-04-01T00:51:37;10.40;99.90
50067;DHT22;35952;52.524;13.340;2023-04-01T00:54:04;10.40;99.90
50067;DHT22;35952;52.524;13.340;2023-04-01T00:56:33;10.50;99.90
50067;DHT22;35952;52.524;13.340;2023-04-01T00:59:07;10.40;99.90
50067;DHT22;35952;52.524;13.340;2023-04-01T01:01:35;10.50;99.90
50067;DHT22;35952;52.524;13.340;2023-04-01T01:04:01;10.30;99.90
50067;DHT22;35952;52.524;13.340;2023-04-01T01:06:39;10.40;99.90
50067;DHT22;35952;52.524;13.340;2023-04-01T01:09:30;10.50;99.90
50067;DHT22;35952;52.524;13.340;2023-04-01T01:12:16;10.60;99.90
50067;DHT22;35952;52.524;13.340;2023-04-01T01:14:48;10.50;99.90
50067;DHT22;35952;52.524;13.340;2023-04-01T01:17:44;10.50;99.90
50067;DHT22;35952;52.524;13.340;2023-04-01T01:32:01;10.50;99.90
50067;DHT22;35952;52.524;13.340;2023-04-01T01:37:23;10.50;99.90
50067;DHT22;35952;52.524;13.340;2023-04-01T01:39:55;10.50;99.90
50067;DHT22;35952;52.524;13.340;2023-04-01T01:42:22;10.30;99.90
50067;DHT22;35952;52.524;13.340;2023-04-01T01:44:50;10.30;99.90
50067;DHT22;35952;52.524;13.340;2023-04-01T01:47:18;10.40;99.90
50067;DHT22;35952;52.524;13.340;2023-04-01T01:49:45;10.40;99.90
50067;DHT22;35952;52.524;13.340;2023-04-01T01:52:12;10.40;99.90
50067;DHT22;35952;52.524;13.340;2023-04-01T01:54:50;10.40;99.90
50067;DHT22;35952;52.524;13.340;2023-04-01T01:57:17;10.50;99.90
50067;DHT22;35952;52.524;13.340;2023-04-01T01:59:45;10.60;99.90
50067;DHT22;35952;52.524;13.340;2023-04-01T02:02:13;10.60;99.90
50067;DHT22;35952;52.524;13.340;2023-04-01T02:04:45;10.60;99.90
50067;DHT22;35952;52.524;13.340;2023-04-01T02:07:34;10.40;99.90
50067;DHT22;35952;52.524;13.340;2023-04-01T02:10:01;10.50;99.90
50067;DHT22;35952;52.524;13.340;2023-04-01T02:12:28;10.50;99.90
50067;DHT22;35952;52.524;13.340;2023-04-01T02:15:03;10.40;99.90
50067;DHT22;35952;52.524;13.340;2023-04-01T02:17:32;10.30;99.90
50067;DHT22;35952;52.524;13.340;2023-04-01T02:22:43;10.20;99.90
50067;DHT22;35952;52.524;13.340;2023-04-01T02:25:13;10.30;99.90
50067;DHT22;35952;52.524;13.340;2023-04-01T02:27:40;10.40;99.90
50067;DHT22;35952;52.524;13.340;2023-04-01T02:30:07;10.40;99.90
50067;DHT22;35952;52.524;13.340;2023-04-01T02:32:33;10.30;99.90
50067;DHT22;35952;52.524;13.340;2023-04-01T02:35:01;10.20;99.90
50067;DHT22;35952;52.524;13.340;2023-04-01T02:37:31;10.30;99.90
50067;DHT22;35952;52.524;13.340;2023-04-01T02:40:02;10.50;99.90
50067;DHT22;35952;52.524;13.340;2023-04-01T02:42:28;10.50;99.90
50067;DHT22;35952;52.524;13.340;2023-04-01T02:44:54;10.50;99.90
50067;DHT22;35952;52.524;13.340;2023-04-01T02:47:19;10.50;99.90
50067;DHT22;35952;52.524;13.340;2023-04-01T02:49:45;10.40;99.90
50067;DHT22;35952;52.524;13.340;2023-04-01T02:52:10;10.50;99.90
50067;DHT22;35952;52.524;13.340;2023-04-01T02:54:36;10.40;99.90
50067;DHT22;35952;52.524;13.340;2023-04-01T02:57:01;10.40;99.90
50067;DHT22;35952;52.524;13.340;2023-04-01T02:59:26;10.40;99.90
50067;DHT22;35952;52.524;13.340;2023-04-01T03:01:52;10.40;99.90
50067;DHT22;35952;52.524;13.340;2023-04-01T03:04:17;10.50;99.90
50067;DHT22;35952;52.524;13.340;2023-04-01T03:06:43;10.40;99.90
50067;DHT22;35952;52.524;13.340;2023-04-01T03:09:09;10.30;99.90
50067;DHT22;35952;52.524;13.340;2023-04-01T03:11:34;10.40;99.90
50067;DHT22;35952;52.524;13.340;2023-04-01T03:14:00;10.40;99.90
50067;DHT22;35952;52.524;13.340;2023-04-01T03:16:26;10.50;99.90
50067;DHT22;35952;52.524;13.340;2023-04-01T03:18:51;10.20;99.90
50067;DHT22;35952;52.524;13.340;2023-04-01T03:21:21;10.30;99.90
50067;DHT22;35952;52.524;13.340;2023-04-01T03:23:47;10.30;99.90
50067;DHT22;35952;52.524;13.340;2023-04-01T03:26:13;10.30;99.90
50067;DHT22;35952;52.524;13.340;2023-04-01T03:28:39;10.30;99.90
50067;DHT22;35952;52.524;13.340;2023-04-01T03:31:05;10.40;99.90
50067;DHT22;35952;52.524;13.340;2023-04-01T03:33:31;10.40;99.90
50067;DHT22;35952;52.524;13.340;2023-04-01T03:35:56;10.40;99.90
50067;DHT22;35952;52.524;13.340;2023-04-01T03:38:22;10.40;99.90
50067;DHT22;35952;52.524;13.340;2023-04-01T03:40:47;10.30;99.90
50067;DHT22;35952;52.524;13.340;2023-04-01T03:43:13;10.40;99.90
50067;DHT22;35952;52.524;13.340;2023-04-01T03:45:46;10.40;99.90
50067;DHT22;35952;52.524;13.340;2023-04-01T03:48:13;10.50;99.90
50067;DHT22;35952;52.524;13.340;2023-04-01T03:50:38;10.50;99.90
50067;DHT22;35952;52.524;13.340;2023-04-01T03:53:04;10.40;99.90
50067;DHT22;35952;52.524;13.340;2023-04-01T03:55:30;10.50;99.90
50067;DHT22;35952;52.524;13.340;2023-04-01T03:57:55;10.60;99.90
50067;DHT22;35952;52.524;13.340;2023-04-01T04:00:21;10.60;99.90
50067;DHT22;35952;52.524;13.340;2023-04-01T04:02:47;10.60;99.90
50067;DHT22;35952;52.524;13.340;2023-04-01T04:05:13;10.60;99.90
50067;DHT22;35952;52.524;13.340;2023-04-01T04:07:39;10.70;99.90
50067;DHT22;35952;52.524;13.340;2023-04-01T04:10:07;10.60;99.90
50067;DHT22;35952;52.524;13.340;2023-04-01T04:12:32;10.60;99.90
50067;DHT22;35952;52.524;13.340;2023-04-01T04:14:58;10.60;99.90
50067;DHT22;35952;52.524;13.340;2023-04-01T04:17:23;10.60;99.90
50067;DHT22;35952;52.524;13.340;2023-04-01T04:19:50;10.50;99.90
50067;DHT22;35952;52.524;13.340;2023-04-01T04:22:15;10.50;99.90
50067;DHT22;35952;52.524;13.340;2023-04-01T04:24:41;10.50;99.90
50067;DHT22;35952;52.524;13.340;2023-04-01T04:27:06;10.50;99.90
50067;DHT22;35952;52.524;13.340;2023-04-01T04:29:32;10.40;99.90
50067;DHT22;35952;52.524;13.340;2023-04-01T04:31:57;10.60;99.90
50067;DHT22;35952;52.524;13.340;2023-04-01T04:34:23;10.60;99.90
50067;DHT22;35952;52.524;13.340;2023-04-01T04:36:48;10.70;99.90
50067;DHT22;35952;52.524;13.340;2023-04-01T04:39:14;10.60;99.90
50067;DHT22;35952;52.524;13.340;2023-04-01T04:41:41;10.60;99.90
50067;DHT22;35952;52.524;13.340;2023-04-01T04:44:07;10.70;99.90
50067;DHT22;35952;52.524;13.340;2023-04-01T04:46:32;10.60;99.90
50067;DHT22;35952;52.524;13.340;2023-04-01T04:48:58;10.60;99.90
50067;DHT22;35952;52.524;13.340;2023-04-01T04:51:24;10.50;99.90
50067;DHT22;35952;52.524;13.340;2023-04-01T04:53:50;10.40;99.90
50067;DHT22;35952;52.524;13.340;2023-04-01T04:56:22;10.40;99.90
50067;DHT22;35952;52.524;13.340;2023-04-01T04:58:48;10.40;99.90
50067;DHT22;35952;52.524;13.340;2023-04-01T05:01:15;10.40;99.90
50067;DHT22;35952;52.524;13.340;2023-04-01T05:03:41;10.50;99.90
50067;DHT22;35952;52.524;13.340;2023-04-01T05:06:09;10.60;99.90
50067;DHT22;35952;52.524;13.340;2023-04-01T05:08:35;10.60;99.90
50067;DHT22;35952;52.524;13.340;2023-04-01T05:11:02;10.60;99.90
50067;DHT22;35952;52.524;13.340;2023-04-01T05:13:28;10.60;99.90
50067;DHT22;35952;52.524;13.340;2023-04-01T05:15:54;10.60;99.90
50067;DHT22;35952;52.524;13.340;2023-04-01T05:18:20;10.50;99.90
50067;DHT22;35952;52.524;13.340;2023-04-01T05:20:51;10.60;99.90
50067;DHT22;35952;52.524;13.340;2023-04-01T05:23:17;10.60;99.90
50067;DHT22;35952;52.524;13.340;2023-04-01T05:25:43;10.60;99.90
50067;DHT22;35952;52.524;13.340;2023-04-01T05:28:14;10.60;99.90
50067;DHT22;35952;52.524;13.340;2023-04-01T05:30:43;10.60;99.90
50067;DHT22;35952;52.524;13.340;2023-04-01T05:33:10;10.70;99.90
50067;DHT22;35952;52.524;13.340;2023-04-01T05:35:36;10.60;99.90
50067;DHT22;35952;52.524;13.340;2023-04-01T05:38:02;10.60;99.90
50067;DHT22;35952;52.524;13.340;2023-04-01T05:40:28;10.50;99.90
50067;DHT22;35952;52.524;13.340;2023-04-01T05:42:54;10.60;99.90
50067;DHT22;35952;52.524;13.340;2023-04-01T05:45:19;10.60;99.90
50067;DHT22;35952;52.524;13.340;2023-04-01T05:47:45;10.60;99.90
50067;DHT22;35952;52.524;13.340;2023-04-01T05:50:11;10.70;99.90
50067;DHT22;35952;52.524;13.340;2023-04-01T05:52:37;10.70;99.90
50067;DHT22;35952;52.524;13.340;2023-04-01T05:55:03;10.60;99.90
50067;DHT22;35952;52.524;13.340;2023-04-01T05:57:29;10.70;99.90
50067;DHT22;35952;52.524;13.340;2023-04-01T05:59:55;10.80;99.90
50067;DHT22;35952;52.524;13.340;2023-04-01T06:02:20;10.80;99.90
50067;DHT22;35952;52.524;13.340;2023-04-01T06:04:46;10.80;99.90
50067;DHT22;35952;52.524;13.340;2023-04-01T06:07:13;10.80;99.90
50067;DHT22;35952;52.524;13.340;2023-04-01T06:09:39;10.80;99.90
50067;DHT22;35952;52.524;13.340;2023-04-01T06:12:17;10.90;99.90
50067;DHT22;35952;52.524;13.340;2023-04-01T06:23:29;10.70;99.90
50067;DHT22;35952;52.524;13.340;2023-04-01T06:26:59;10.90;99.90
50067;DHT22;35952;52.524;13.340;2023-04-01T06:29:16;10.80;99.90
50067;DHT22;35952;52.524;13.340;2023-04-01T06:32:26;10.70;99.90
50067;DHT22;35952;52.524;13.340;2023-04-01T06:43:27;10.80;99.90
50067;DHT22;35952;52.524;13.340;2023-04-01T06:54:32;11.10;99.90
50067;DHT22;35952;52.524;13.340;2023-04-01T06:57:03;10.90;99.90
50067;DHT22;35952;52.524;13.340;2023-04-01T06:59:33;10.80;99.90
50067;DHT22;35952;52.524;13.340;2023-04-01T07:04:42;11.10;99.90
50067;DHT22;35952;52.524;13.340;2023-04-01T07:07:19;11.10;99.90
50067;DHT22;35952;52.524;13.340;2023-04-01T07:09:51;11.20;99.90
50067;DHT22;35952;52.524;13.340;2023-04-01T07:15:06;11.20;99.90
50067;DHT22;35952;52.524;13.340;2023-04-01T07:17:39;11.10;99.90
50067;DHT22;35952;52.524;13.340;2023-04-01T07:20:32;11.20;99.90
50067;DHT22;35952;52.524;13.340;2023-04-01T07:23:04;11.40;99.90
50067;DHT22;35952;52.524;13.340;2023-04-01T07:25:35;11.50;99.90
50067;DHT22;35952;52.524;13.340;2023-04-01T07:28:20;11.60;99.90
50067;DHT22;35952;52.524;13.340;2023-04-01T07:33:58;11.60;99.90
50067;DHT22;35952;52.524;13.340;2023-04-01T07:36:42;11.80;99.90
50067;DHT22;35952;52.524;13.340;2023-04-01T07:42:13;11.90;99.90
50067;DHT22;35952;52.524;13.340;2023-04-01T07:44:54;11.90;99.90
50067;DHT22;35952;52.524;13.340;2023-04-01T07:50:11;11.90;99.90
50067;DHT22;35952;52.524;13.340;2023-04-01T07:52:50;12.00;99.90
50067;DHT22;35952;52.524;13.340;2023-04-01T08:00:56;12.30;99.90
50067;DHT22;35952;52.524;13.340;2023-04-01T08:06:40;12.40;99.90
50067;DHT22;35952;52.524;13.340;2023-04-01T08:09:33;12.60;99.90
50067;DHT22;35952;52.524;13.340;2023-04-01T08:12:38;12.70;99.90
50067;DHT22;35952;52.524;13.340;2023-04-01T08:15:24;12.90;99.90
50067;DHT22;35952;52.524;13.340;2023-04-01T08:23:04;13.10;99.90
50067;DHT22;35952;52.524;13.340;2023-04-01T08:25:32;13.00;99.90
50067;DHT22;35952;52.524;13.340;2023-04-01T08:30:47;12.80;99.90
50067;DHT22;35952;52.524;13.340;2023-04-01T08:33:24;12.70;99.90
50067;DHT22;35952;52.524;13.340;2023-04-01T08:40:57;11.80;99.90
50067;DHT22;35952;52.524;13.340;2023-04-01T08:43:42;11.60;99.90
50067;DHT22;35952;52.524;13.340;2023-04-01T08:46:43;11.50;99.90
50067;DHT22;35952;52.524;13.340;2023-04-01T09:00:46;11.10;99.90
50067;DHT22;35952;52.524;13.340;2023-04-01T09:08:48;11.00;99.90
50067;DHT22;35952;52.524;13.340;2023-04-01T09:14:29;11.10;99.90
50067;DHT22;35952;52.524;13.340;2023-04-01T09:17:26;11.20;99.90
50067;DHT22;35952;52.524;13.340;2023-04-01T09:29:10;11.50;99.90
50067;DHT22;35952;52.524;13.340;2023-04-01T09:31:55;11.40;99.90
50067;DHT22;35952;52.524;13.340;2023-04-01T09:34:54;11.20;99.90
50067;DHT22;35952;52.524;13.340;2023-04-01T09:40:18;11.20;99.90
50067;DHT22;35952;52.524;13.340;2023-04-01T09:43:06;11.20;99.90
50067;DHT22;35952;52.524;13.340;2023-04-01T10:03:05;10.80;99.90
50067;DHT22;35952;52.524;13.340;2023-04-01T10:06:02;10.60;99.90
50067;DHT22;35952;52.524;13.340;2023-04-01T10:11:49;10.40;99.90
50067;DHT22;35952;52.524;13.340;2023-04-01T10:17:11;10.30;99.90
50067;DHT22;35952;52.524;13.340;2023-04-01T10:20:07;10.30;99.90
50067;DHT22;35952;52.524;13.340;2023-04-01T10:26:07;10.10;99.90
50067;DHT22;35952;52.524;13.340;2023-04-01T10:38:26;10.10;99.90
50067;DHT22;35952;52.524;13.340;2023-04-01T10:44:33;10.00;99.90
50067;DHT22;35952;52.524;13.340;2023-04-01T10:47:26;10.20;99.90
50067;DHT22;35952;52.524;13.340;2023-04-01T11:02:06;10.00;99.90
50067;DHT22;35952;52.524;13.340;2023-04-01T11:04:52;10.10;99.90
50067;DHT22;35952;52.524;13.340;2023-04-01T11:07:49;10.00;99.90
50067;DHT22;35952;52.524;13.340;2023-04-01T11:19:19;9.90;99.90
50067;DHT22;35952;52.524;13.340;2023-04-01T11:25:09;9.80;99.90
50067;DHT22;35952;52.524;13.340;2023-04-01T11:27:53;9.90;99.90
50067;DHT22;35952;52.524;13.340;2023-04-01T11:30:47;9.90;99.90
50067;DHT22;35952;52.524;13.340;2023-04-01T11:33:34;9.90;99.90
50067;DHT22;35952;52.524;13.340;2023-04-01T11:36:16;9.90;99.90
50067;DHT22;35952;52.524;13.340;2023-04-01T11:42:19;9.90;99.90
50067;DHT22;35952;52.524;13.340;2023-04-01T11:45:18;9.90;99.90
50067;DHT22;35952;52.524;13.340;2023-04-01T11:47:50;9.80;99.90
50067;DHT22;35952;52.524;13.340;2023-04-01T11:50:29;9.80;99.90
50067;DHT22;35952;52.524;13.340;2023-04-01T11:53:23;9.90;99.90
50067;DHT22;35952;52.524;13.340;2023-04-01T11:56:07;9.80;99.90
50067;DHT22;35952;52.524;13.340;2023-04-01T12:12:46;9.70;99.90
50067;DHT22;35952;52.524;13.340;2023-04-01T12:15:24;9.70;99.90
50067;DHT22;35952;52.524;13.340;2023-04-01T12:27:29;9.70;99.90
50067;DHT22;35952;52.524;13.340;2023-04-01T12:32:46;9.80;99.90
50067;DHT22;35952;52.524;13.340;2023-04-01T12:35:23;9.60;99.90
50067;DHT22;35952;52.524;13.340;2023-04-01T12:38:13;9.60;99.90
50067;DHT22;35952;52.524;13.340;2023-04-01T12:41:03;9.60;99.90
50067;DHT22;35952;52.524;13.340;2023-04-01T12:46:36;9.60;99.90
50067;DHT22;35952;52.524;13.340;2023-04-01T12:52:08;9.50;99.90
50067;DHT22;35952;52.524;13.340;2023-04-01T12:58:02;9.40;99.90
50067;DHT22;35952;52.524;13.340;2023-04-01T13:00:58;9.40;99.90
50067;DHT22;35952;52.524;13.340;2023-04-01T13:07:03;9.40;99.90
50067;DHT22;35952;52.524;13.340;2023-04-01T13:15:13;9.10;99.90
50067;DHT22;35952;52.524;13.340;2023-04-01T13:17:57;9.00;99.90
50067;DHT22;35952;52.524;13.340;2023-04-01T13:29:13;8.80;99.90
50067;DHT22;35952;52.524;13.340;2023-04-01T13:32:01;8.80;99.90
50067;DHT22;35952;52.524;13.340;2023-04-01T13:34:39;8.80;99.90
50067;DHT22;35952;52.524;13.340;2023-04-01T13:37:36;8.90;99.90
50067;DHT22;35952;52.524;13.340;2023-04-01T13:43:47;9.00;99.90
50067;DHT22;35952;52.524;13.340;2023-04-01T13:46:12;8.80;99.90
50067;DHT22;35952;52.524;13.340;2023-04-01T13:49:17;8.90;99.90
50067;DHT22;35952;52.524;13.340;2023-04-01T13:52:08;9.00;99.90
50067;DHT22;35952;52.524;13.340;2023-04-01T13:55:19;9.00;99.90
50067;DHT22;35952;52.524;13.340;2023-04-01T14:01:06;9.10;99.90
50067;DHT22;35952;52.524;13.340;2023-04-01T14:03:55;9.00;99.90
50067;DHT22;35952;52.524;13.340;2023-04-01T14:06:31;8.90;99.90
50067;DHT22;35952;52.524;13.340;2023-04-01T14:09:25;8.80;99.90
50067;DHT22;35952;52.524;13.340;2023-04-01T14:12:13;8.80;99.90
50067;DHT22;35952;52.524;13.340;2023-04-01T14:32:11;8.80;99.90
50067;DHT22;35952;52.524;13.340;2023-04-01T14:49:41;8.50;99.90
50067;DHT22;35952;52.524;13.340;2023-04-01T14:54:37;8.40;99.90
50067;DHT22;35952;52.524;13.340;2023-04-01T14:57:23;8.30;99.90
50067;DHT22;35952;52.524;13.340;2023-04-01T15:02:50;8.30;99.90
50067;DHT22;35952;52.524;13.340;2023-04-01T15:08:27;8.20;99.90
50067;DHT22;35952;52.524;13.340;2023-04-01T15:16:23;8.20;99.90
50067;DHT22;35952;52.524;13.340;2023-04-01T15:22:01;8.30;99.90
50067;DHT22;35952;52.524;13.340;2023-04-01T15:27:33;8.10;99.90
50067;DHT22;35952;52.524;13.340;2023-04-01T15:30:18;7.90;99.90
50067;DHT22;35952;52.524;13.340;2023-04-01T15:43:48;7.90;99.90
50067;DHT22;35952;52.524;13.340;2023-04-01T15:46:43;7.90;99.90
50067;DHT22;35952;52.524;13.340;2023-04-01T15:55:01;8.00;99.90
50067;DHT22;35952;52.524;13.340;2023-04-01T16:03:48;7.80;99.90
50067;DHT22;35952;52.524;13.340;2023-04-01T16:09:00;7.90;99.90
50067;DHT22;35952;52.524;13.340;2023-04-01T16:11:46;7.90;99.90
50067;DHT22;35952;52.524;13.340;2023-04-01T16:14:28;7.90;99.90
50067;DHT22;35952;52.524;13.340;2023-04-01T16:17:03;7.90;99.90
50067;DHT22;35952;52.524;13.340;2023-04-01T16:20:12;7.90;99.90
50067;DHT22;35952;52.524;13.340;2023-04-01T16:23:02;8.00;99.90
50067;DHT22;35952;52.524;13.340;2023-04-01T16:28:28;7.90;99.90
50067;DHT22;35952;52.524;13.340;2023-04-01T16:34:21;7.80;99.90
50067;DHT22;35952;52.524;13.340;2023-04-01T16:37:00;7.70;99.90
50067;DHT22;35952;52.524;13.340;2023-04-01T16:42:34;7.50;99.90
50067;DHT22;35952;52.524;13.340;2023-04-01T16:47:56;7.60;99.90
50067;DHT22;35952;52.524;13.340;2023-04-01T16:50:27;7.50;99.90
50067;DHT22;35952;52.524;13.340;2023-04-01T16:53:19;7.40;99.90
50067;DHT22;35952;52.524;13.340;2023-04-01T16:58:22;7.20;99.90
50067;DHT22;35952;52.524;13.340;2023-04-01T17:00:49;7.20;99.90
50067;DHT22;35952;52.524;13.340;2023-04-01T17:06:10;7.10;99.90
50067;DHT22;35952;52.524;13.340;2023-04-01T17:08:47;7.10;99.90
50067;DHT22;35952;52.524;13.340;2023-04-01T17:16:43;7.00;99.90
50067;DHT22;35952;52.524;13.340;2023-04-01T17:22:03;6.90;99.90
50067;DHT22;35952;52.524;13.340;2023-04-01T17:28:10;6.90;99.90
50067;DHT22;35952;52.524;13.340;2023-04-01T17:36:33;6.70;99.90
50067;DHT22;35952;52.524;13.340;2023-04-01T17:39:15;6.80;99.90
50067;DHT22;35952;52.524;13.340;2023-04-01T17:41:48;6.70;99.90
50067;DHT22;35952;52.524;13.340;2023-04-01T17:44:44;6.70;99.90
50067;DHT22;35952;52.524;13.340;2023-04-01T17:49:49;6.50;99.90
50067;DHT22;35952;52.524;13.340;2023-04-01T17:57:46;6.30;99.90
50067;DHT22;35952;52.524;13.340;2023-04-01T18:00:26;6.20;99.90
50067;DHT22;35952;52.524;13.340;2023-04-01T18:03:12;6.30;99.90
50067;DHT22;35952;52.524;13.340;2023-04-01T18:05:54;6.20;99.90
50067;DHT22;35952;52.524;13.340;2023-04-01T18:08:43;6.20;99.90
50067;DHT22;35952;52.524;13.340;2023-04-01T18:11:40;6.00;99.90
50067;DHT22;35952;52.524;13.340;2023-04-01T18:17:32;5.90;99.90
50067;DHT22;35952;52.524;13.340;2023-04-01T18:20:33;5.80;99.90
50067;DHT22;35952;52.524;13.340;2023-04-01T18:25:55;5.80;99.90
50067;DHT22;35952;52.524;13.340;2023-04-01T18:33:31;5.80;99.90
50067;DHT22;35952;52.524;13.340;2023-04-01T18:36:14;5.80;99.90
50067;DHT22;35952;52.524;13.340;2023-04-01T18:46:53;5.70;99.90
50067;DHT22;35952;52.524;13.340;2023-04-01T18:49:39;5.80;99.90
50067;DHT22;35952;52.524;13.340;2023-04-01T18:52:33;5.70;99.90
50067;DHT22;35952;52.524;13.340;2023-04-01T18:57:45;5.70;99.90
50067;DHT22;35952;52.524;13.340;2023-04-01T19:03:16;5.70;99.90
50067;DHT22;35952;52.524;13.340;2023-04-01T19:05:47;5.70;99.90
50067;DHT22;35952;52.524;13.340;2023-04-01T19:08:29;5.60;99.90
50067;DHT22;35952;52.524;13.340;2023-04-01T19:11:36;5.60;99.90
50067;DHT22;35952;52.524;13.340;2023-04-01T19:14:16;5.60;99.90
50067;DHT22;35952;52.524;13.340;2023-04-01T19:17:04;5.60;99.90
50067;DHT22;35952;52.524;13.340;2023-04-01T19:19:56;5.60;99.90
50067;DHT22;35952;52.524;13.340;2023-04-01T19:22:44;5.50;99.90
50067;DHT22;35952;52.524;13.340;2023-04-01T19:28:20;5.50;99.90
50067;DHT22;35952;52.524;13.340;2023-04-01T19:31:29;5.50;99.90
50067;DHT22;35952;52.524;13.340;2023-04-01T19:36:43;5.30;99.90
50067;DHT22;35952;52.524;13.340;2023-04-01T19:52:48;5.30;99.90
50067;DHT22;35952;52.524;13.340;2023-04-01T19:55:35;5.30;99.90
50067;DHT22;35952;52.524;13.340;2023-04-01T20:01:03;5.20;99.90
50067;DHT22;35952;52.524;13.340;2023-04-01T20:03:46;5.30;99.90
50067;DHT22;35952;52.524;13.340;2023-04-01T20:14:51;5.30;99.90
50067;DHT22;35952;52.524;13.340;2023-04-01T20:20:00;5.20;99.90
50067;DHT22;35952;52.524;13.340;2023-04-01T20:28:08;5.10;99.90
50067;DHT22;35952;52.524;13.340;2023-04-01T20:30:57;5.00;99.90
50067;DHT22;35952;52.524;13.340;2023-04-01T20:33:32;4.90;99.90
50067;DHT22;35952;52.524;13.340;2023-04-01T20:36:21;5.10;99.90
50067;DHT22;35952;52.524;13.340;2023-04-01T20:44:13;5.10;99.90
50067;DHT22;35952;52.524;13.340;2023-04-01T20:47:05;5.00;99.90
50067;DHT22;35952;52.524;13.340;2023-04-01T20:52:40;5.00;99.90
50067;DHT22;35952;52.524;13.340;2023-04-01T20:55:21;5.10;99.90
50067;DHT22;35952;52.524;13.340;2023-04-01T20:58:02;5.10;99.90
50067;DHT22;35952;52.524;13.340;2023-04-01T21:00:59;5.00;99.90
50067;DHT22;35952;52.524;13.340;2023-04-01T21:09:27;4.90;99.90
50067;DHT22;35952;52.524;13.340;2023-04-01T21:15:03;4.80;99.90
50067;DHT22;35952;52.524;13.340;2023-04-01T21:26:24;4.80;99.90
50067;DHT22;35952;52.524;13.340;2023-04-01T21:31:50;4.80;99.90
50067;DHT22;35952;52.524;13.340;2023-04-01T21:34:40;4.80;99.90
50067;DHT22;35952;52.524;13.340;2023-04-01T21:38:06;4.80;99.90
50067;DHT22;35952;52.524;13.340;2023-04-01T21:44:03;4.80;99.90
50067;DHT22;35952;52.524;13.340;2023-04-01T21:46:51;4.90;99.90
50067;DHT22;35952;52.524;13.340;2023-04-01T22:08:35;4.80;99.90
50067;DHT22;35952;52.524;13.340;2023-04-01T22:11:14;4.80;99.90
50067;DHT22;35952;52.524;13.340;2023-04-01T22:13:49;4.70;99.90
50067;DHT22;35952;52.524;13.340;2023-04-01T22:16:27;4.70;99.90
50067;DHT22;35952;52.524;13.340;2023-04-01T22:24:55;4.70;99.90
50067;DHT22;35952;52.524;13.340;2023-04-01T22:27:52;4.60;99.90
50067;DHT22;35952;52.524;13.340;2023-04-01T22:30:23;4.60;99.90
50067;DHT22;35952;52.524;13.340;2023-04-01T22:33:03;4.50;99.90
50067;DHT22;35952;52.524;13.340;2023-04-01T22:35:44;4.60;99.90
50067;DHT22;35952;52.524;13.340;2023-04-01T22:41:05;4.70;99.90
50067;DHT22;35952;52.524;13.340;2023-04-01T22:43:40;4.60;99.90
50067;DHT22;35952;52.524;13.340;2023-04-01T22:49:16;4.60;99.90
50067;DHT22;35952;52.524;13.340;2023-04-01T22:51:47;4.70;99.90
50067;DHT22;35952;52.524;13.340;2023-04-01T22:54:28;4.60;99.90
50067;DHT22;35952;52.524;13.340;2023-04-01T22:57:02;4.60;99.90
50067;DHT22;35952;52.524;13.340;2023-04-01T23:02:28;4.60;99.90
50067;DHT22;35952;52.524;13.340;2023-04-01T23:05:00;4.60;99.90
50067;DHT22;35952;52.524;13.340;2023-04-01T23:13:03;4.70;99.90
50067;DHT22;35952;52.524;13.340;2023-04-01T23:15:32;4.70;99.90
50067;DHT22;35952;52.524;13.340;2023-04-01T23:18:11;4.70;99.90
50067;DHT22;35952;52.524;13.340;2023-04-01T23:23:53;4.60;99.90
50067;DHT22;35952;52.524;13.340;2023-04-01T23:29:26;4.60;99.90
50067;DHT22;35952;52.524;13.340;2023-04-01T23:32:01;4.60;99.90
50067;DHT22;35952;52.524;13.340;2023-04-01T23:34:36;4.60;99.90
50067;DHT22;35952;52.524;13.340;2023-04-01T23:37:05;4.60;99.90
50067;DHT22;35952;52.524;13.340;2023-04-01T23:39:41;4.60;99.90
50067;DHT22;35952;52.524;13.340;2023-04-01T23:42:29;4.70;99.90
50067;DHT22;35952;52.524;13.340;2023-04-01T23:44:58;4.70;99.90
50067;DHT22;35952;52.524;13.340;2023-04-01T23:47:27;4.80;99.90
50067;DHT22;35952;52.524;13.340;2023-04-01T23:50:29;4.80;99.90
50067;DHT22;35952;52.524;13.340;2023-04-01T23:52:57;4.80;99.90
50067;DHT22;35952;52.524;13.340;2023-04-01T23:55:30;4.70;99.90
